Time;durP1;ratioP1;P1;durP2;ratioP2;P2;SDS_P1;SDS_P2;PMS_P1;PMS_P2;Temp;Humidity;BMP_temperature;BMP_pressure;BME280_temperature;BME280_humidity;BME280_pressure;Samples;Min_cycle;Max_cycle;Signal;HPM_P1;HPM_P2
2021/04/20 00:01:24;;;;;;;12.43;5.93;;;;;;;3.47;95.80;101088.00;4972287;28;20554;-82
2021/04/20 00:03:50;;;;;;;8.37;5.37;;;;;;;3.43;95.63;101078.34;4956333;28;20137;-80
2021/04/20 00:06:16;;;;;;;9.30;6.07;;;;;;;3.33;96.31;101083.44;4959068;28;20443;-82
2021/04/20 00:08:42;;;;;;;9.70;5.77;;;;;;;3.34;96.34;101084.31;4955702;28;20050;-81
2021/04/20 00:11:10;;;;;;;9.57;5.77;;;;;;;3.30;95.71;101075.56;4973669;28;20659;-81
2021/04/20 00:13:36;;;;;;;14.57;6.53;;;;;;;3.22;95.59;101073.69;4956761;28;20053;-82
2021/04/20 00:16:02;;;;;;;11.73;5.43;;;;;;;3.03;96.22;101070.78;4984955;28;20101;-82
2021/04/20 00:18:28;;;;;;;9.33;5.73;;;;;;;2.92;97.33;101076.66;4983934;28;20039;-80
2021/04/20 00:20:54;;;;;;;8.47;5.90;;;;;;;2.83;98.08;101080.84;4964183;28;20047;-79
2021/04/20 00:23:21;;;;;;;8.80;6.10;;;;;;;2.86;97.64;101081.75;4960404;28;20074;-82
2021/04/20 00:25:47;;;;;;;11.60;6.60;;;;;;;2.91;96.91;101069.69;4956554;28;20104;-80
2021/04/20 00:28:24;;;;;;;8.87;5.63;;;;;;;2.97;96.64;101065.44;4977549;28;20069;-82
2021/04/20 00:30:51;;;;;;;12.33;6.77;;;;;;;2.80;96.98;101064.28;4969834;28;20046;-82
2021/04/20 00:33:18;;;;;;;8.83;6.37;;;;;;;2.63;99.06;101063.09;4948454;28;20401;-81
2021/04/20 00:35:44;;;;;;;8.60;5.57;;;;;;;2.66;98.51;101064.03;4950596;28;20053;-82
2021/04/20 00:38:11;;;;;;;11.27;5.90;;;;;;;2.71;97.55;101062.41;4943720;28;20038;-82
2021/04/20 00:40:37;;;;;;;10.53;5.47;;;;;;;2.57;97.76;101061.25;4980597;28;20043;-82
2021/04/20 00:43:04;;;;;;;11.27;5.97;;;;;;;2.64;97.97;101059.66;4950315;28;20043;-82
2021/04/20 00:45:32;;;;;;;8.20;5.40;;;;;;;2.70;96.72;101055.41;4956228;28;20046;-80
2021/04/20 00:47:59;;;;;;;13.63;6.43;;;;;;;2.67;96.40;101060.56;4979964;28;20522;-82
2021/04/20 00:50:28;;;;;;;13.20;6.67;;;;;;;2.64;97.09;101052.69;4950626;28;20042;-82
2021/04/20 00:52:54;;;;;;;8.47;5.67;;;;;;;2.53;95.77;101047.28;4944521;28;20038;-82
2021/04/20 00:55:21;;;;;;;16.33;7.47;;;;;;;2.57;96.35;101042.13;4964558;28;20047;-82
2021/04/20 00:57:47;;;;;;;14.67;7.47;;;;;;;2.31;97.84;101039.03;4970885;28;20643;-82
2021/04/20 01:00:18;;;;;;;11.97;6.00;;;;;;;2.22;99.19;101038.00;4952995;28;20050;-82
2021/04/20 01:02:44;;;;;;;12.77;7.00;;;;;;;2.26;99.09;101037.19;4972972;28;20050;-82
2021/04/20 01:05:14;;;;;;;9.20;6.03;;;;;;;2.14;98.67;101043.91;4965864;28;20042;-82
2021/04/20 01:07:41;;;;;;;10.23;6.13;;;;;;;2.24;99.00;101046.72;4942643;28;20042;-82
2021/04/20 01:10:08;;;;;;;11.13;6.00;;;;;;;2.24;98.46;101036.31;4964248;28;20034;-83
2021/04/20 01:12:39;;;;;;;14.07;6.60;;;;;;;2.08;99.99;101044.66;4970497;28;20045;-82
2021/04/20 01:15:07;;;;;;;11.27;6.93;;;;;;;2.20;99.70;101044.94;4950273;28;20047;-81
2021/04/20 01:17:33;;;;;;;11.43;5.80;;;;;;;2.14;97.51;101041.31;4962941;28;20050;-82
2021/04/20 01:20:00;;;;;;;12.30;6.60;;;;;;;2.06;98.86;101041.16;4955708;28;20104;-81
2021/04/20 01:22:32;;;;;;;11.67;5.97;;;;;;;2.10;98.67;101039.47;4971897;28;20049;-82
2021/04/20 01:25:00;;;;;;;11.57;6.93;;;;;;;1.92;99.43;101034.78;4987925;28;20092;-82
2021/04/20 01:27:26;;;;;;;15.20;8.17;;;;;;;1.94;99.78;101035.72;4955302;28;20043;-82
2021/04/20 01:29:54;;;;;;;11.57;7.17;;;;;;;2.09;98.49;101035.13;4954942;28;20046;-82
2021/04/20 01:32:20;;;;;;;11.37;5.97;;;;;;;1.98;97.91;101030.56;4953737;28;20042;-82
2021/04/20 01:34:46;;;;;;;8.83;5.70;;;;;;;1.82;99.14;101031.09;4945654;28;20054;-82
2021/04/20 01:37:12;;;;;;;13.07;6.67;;;;;;;1.76;100.00;101033.56;4968134;28;20042;-82
2021/04/20 01:39:39;;;;;;;10.87;6.03;;;;;;;1.71;100.00;101018.72;4964506;28;20038;-82
2021/04/20 01:42:06;;;;;;;9.13;5.83;;;;;;;1.73;100.00;101040.47;4943547;28;20039;-82
2021/04/20 01:44:32;;;;;;;9.57;5.50;;;;;;;1.73;100.00;101051.75;4953806;28;20073;-82
2021/04/20 01:46:58;;;;;;;9.70;6.30;;;;;;;1.74;100.00;101047.41;4986077;28;20503;-82
2021/04/20 01:49:25;;;;;;;11.17;6.70;;;;;;;1.80;100.00;101048.44;4954095;28;20041;-83
2021/04/20 01:51:52;;;;;;;12.27;7.03;;;;;;;1.83;100.00;101040.69;4983716;28;20046;-83
2021/04/20 01:54:19;;;;;;;9.97;6.07;;;;;;;1.86;100.00;101042.50;4972709;28;20042;-83
2021/04/20 01:56:46;;;;;;;12.43;6.87;;;;;;;1.76;100.00;101054.41;4965363;28;20043;-82
2021/04/20 01:59:14;;;;;;;9.40;5.73;;;;;;;1.75;100.00;101057.00;4951302;28;20042;-82
2021/04/20 02:01:40;;;;;;;10.03;5.50;;;;;;;1.80;100.00;101051.03;4956661;28;20209;-82
2021/04/20 02:04:07;;;;;;;9.20;5.83;;;;;;;1.91;100.00;101053.88;4943410;28;20042;-83
2021/04/20 02:06:34;;;;;;;11.20;6.47;;;;;;;1.84;100.00;101052.84;4966050;28;20047;-83
2021/04/20 02:09:00;;;;;;;9.80;5.53;;;;;;;1.74;100.00;101057.84;4946043;28;20039;-82
2021/04/20 02:11:26;;;;;;;8.77;5.73;;;;;;;1.69;100.00;101058.63;4970270;28;20141;-83
2021/04/20 02:13:52;;;;;;;9.47;5.27;;;;;;;1.72;100.00;101049.13;4973712;28;20050;-83
2021/04/20 02:16:20;;;;;;;13.60;6.40;;;;;;;1.86;100.00;101048.56;4959412;28;20039;-82
2021/04/20 02:18:48;;;;;;;11.77;6.47;;;;;;;1.73;100.00;101045.66;4989111;28;20039;-81
2021/04/20 02:21:17;;;;;;;9.87;5.77;;;;;;;1.66;100.00;101057.66;4974163;28;20077;-82
2021/04/20 02:23:44;;;;;;;10.50;5.83;;;;;;;1.73;100.00;101054.34;4970784;28;20050;-82
2021/04/20 02:26:18;;;;;;;9.67;6.30;;;;;;;1.71;100.00;101052.56;4972455;28;20050;-82
2021/04/20 02:28:44;;;;;;;13.15;6.63;;;;;;;1.72;100.00;101059.53;4953516;28;20047;-82
2021/04/20 02:31:11;;;;;;;11.70;6.23;;;;;;;1.86;99.07;101055.50;4972434;28;20038;-82
2021/04/20 02:33:37;;;;;;;8.67;5.50;;;;;;;1.70;98.75;101056.91;4969953;28;20054;-82
2021/04/20 02:36:05;;;;;;;12.57;6.33;;;;;;;1.53;100.00;101060.88;4986724;28;20113;-82
2021/04/20 02:38:31;;;;;;;12.00;7.07;;;;;;;1.68;99.62;101053.38;4961497;28;20093;-82
2021/04/20 02:40:59;;;;;;;11.20;6.00;;;;;;;1.64;98.85;101049.84;4972599;28;20046;-82
2021/04/20 02:43:26;;;;;;;12.40;6.80;;;;;;;1.56;99.22;101047.91;4958571;28;20046;-82
2021/04/20 02:45:53;;;;;;;9.33;6.40;;;;;;;1.51;99.78;101045.19;4951617;28;20109;-82
2021/04/20 02:48:20;;;;;;;12.63;6.07;;;;;;;1.31;100.00;101042.13;4990219;28;20104;-82
2021/04/20 02:50:47;;;;;;;11.30;5.60;;;;;;;1.36;99.64;101043.13;4973121;28;20046;-82
2021/04/20 02:53:16;;;;;;;9.13;5.50;;;;;;;1.23;99.39;101041.06;4952625;28;20046;-82
2021/04/20 02:55:43;;;;;;;11.57;5.10;;;;;;;1.17;99.84;101037.44;4949699;28;20054;-82
2021/04/20 02:58:15;;;;;;;10.97;6.13;;;;;;;1.21;99.84;101040.16;4957518;28;20089;-82
2021/04/20 03:00:44;;;;;;;10.90;5.80;;;;;;;1.21;99.95;101041.91;4972538;28;20051;-82
2021/04/20 03:03:10;;;;;;;9.77;5.97;;;;;;;1.16;100.00;101044.38;4991475;28;20038;-83
2021/04/20 03:05:36;;;;;;;11.43;6.43;;;;;;;1.16;100.00;101040.91;4957429;28;20102;-82
2021/04/20 03:08:04;;;;;;;7.40;5.10;;;;;;;0.97;100.00;101034.38;4958040;28;20050;-83
2021/04/20 03:10:32;;;;;;;9.53;5.10;;;;;;;1.10;99.86;101037.31;4969314;28;20046;-81
2021/04/20 03:12:59;;;;;;;8.90;5.83;;;;;;;1.05;99.85;101033.72;4954100;28;20046;-83
2021/04/20 03:15:26;;;;;;;7.90;5.37;;;;;;;0.89;100.00;101025.50;4950056;28;20463;-82
2021/04/20 03:17:52;;;;;;;12.57;6.30;;;;;;;0.90;100.00;101033.34;4980905;28;20089;-83
2021/04/20 03:20:19;;;;;;;11.90;6.53;;;;;;;0.89;100.00;101029.00;4950752;28;20507;-82
2021/04/20 03:22:46;;;;;;;9.23;6.00;;;;;;;0.84;100.00;101041.00;4962030;28;20087;-83
2021/04/20 03:25:19;;;;;;;9.90;7.03;;;;;;;0.80;100.00;101041.78;4968441;28;20105;-83
2021/04/20 03:27:50;;;;;;;11.43;7.13;;;;;;;0.84;100.00;101041.91;4965875;28;20097;-82
2021/04/20 03:30:18;;;;;;;10.13;5.50;;;;;;;0.83;100.00;101039.22;4948050;28;20097;-83
2021/04/20 03:32:55;;;;;;;11.70;5.87;;;;;;;0.76;100.00;101032.16;4947980;28;20051;-83
2021/04/20 03:35:28;;;;;;;10.33;6.07;;;;;;;0.70;100.00;101029.38;4957219;28;20078;-83
2021/04/20 03:38:06;;;;;;;12.23;6.73;;;;;;;0.80;100.00;101026.16;4988931;28;20046;-83
2021/04/20 03:40:34;;;;;;;10.93;6.13;;;;;;;0.86;100.00;101023.72;4970218;28;20038;-83
2021/04/20 03:43:12;;;;;;;8.90;5.33;;;;;;;0.89;100.00;101022.91;4965008;28;20117;-84
2021/04/20 03:45:45;;;;;;;9.23;6.00;;;;;;;0.82;100.00;101014.06;4963806;28;20416;-83
2021/04/20 03:48:22;;;;;;;9.83;5.83;;;;;;;0.81;100.00;101021.00;4968465;28;20384;-83
2021/04/20 03:50:56;;;;;;;10.43;5.80;;;;;;;0.81;100.00;101013.19;4972907;28;20060;-82
2021/04/20 03:53:24;;;;;;;8.55;5.85;;;;;;;0.83;100.00;101013.22;4957007;28;20500;-83
2021/04/20 03:55:52;;;;;;;11.90;6.20;;;;;;;0.79;100.00;101012.28;4956992;28;20050;-83
2021/04/20 03:58:20;;;;;;;12.87;6.07;;;;;;;0.67;99.57;101009.34;4948513;28;20050;-82
2021/04/20 04:00:52;;;;;;;12.77;6.53;;;;;;;0.70;100.00;101021.56;4972896;28;20050;-84
2021/04/20 04:03:21;;;;;;;11.43;6.03;;;;;;;0.64;100.00;101011.88;4965031;28;20085;-83
2021/04/20 04:05:49;;;;;;;11.60;6.20;;;;;;;0.70;100.00;101017.25;4973944;28;20407;-83
2021/04/20 04:08:17;;;;;;;14.43;6.67;;;;;;;0.63;100.00;101015.34;4972272;28;20515;-85
2021/04/20 04:10:44;;;;;;;9.63;6.13;;;;;;;0.54;100.00;101007.31;4956475;28;20048;-83
2021/04/20 04:13:11;;;;;;;11.87;6.40;;;;;;;0.59;100.00;101023.00;4968474;28;20442;-83
2021/04/20 04:15:38;;;;;;;11.07;6.70;;;;;;;0.64;100.00;101018.81;4961394;28;20047;-84
2021/04/20 04:18:09;;;;;;;12.13;6.43;;;;;;;0.62;100.00;101026.59;4965358;28;20050;-83
2021/04/20 04:20:36;;;;;;;12.37;6.90;;;;;;;0.61;100.00;101017.03;4984586;28;20046;-84
2021/04/20 04:23:12;;;;;;;13.30;7.30;;;;;;;0.67;100.00;101021.47;4957247;28;20049;-83
2021/04/20 04:25:42;;;;;;;10.50;6.57;;;;;;;0.78;100.00;101020.06;4970517;28;20116;-83
2021/04/20 04:28:11;;;;;;;12.00;6.43;;;;;;;0.81;100.00;101014.91;5059700;23;20211;-80
2021/04/20 04:30:38;;;;;;;11.93;7.87;;;;;;;0.83;100.00;101016.69;4985627;28;20094;-82
2021/04/20 04:33:05;;;;;;;9.83;6.03;;;;;;;0.87;100.00;101020.28;4980335;28;20069;-82
2021/04/20 04:35:33;;;;;;;10.73;6.10;;;;;;;0.84;100.00;101020.19;4982622;28;20505;-82
2021/04/20 04:38:00;;;;;;;10.77;6.60;;;;;;;0.84;100.00;101022.78;4974872;28;20057;-81
2021/04/20 04:40:27;;;;;;;13.00;6.23;;;;;;;0.87;100.00;101020.28;4974920;28;20041;-80
2021/04/20 04:42:53;;;;;;;12.40;6.37;;;;;;;1.01;100.00;101012.78;4995595;28;20112;-79
2021/04/20 04:45:19;;;;;;;12.73;7.40;;;;;;;1.10;100.00;101021.72;4994337;28;20042;-79
2021/04/20 04:47:46;;;;;;;9.83;6.07;;;;;;;1.17;100.00;101019.22;4982847;28;20069;-80
2021/04/20 04:50:12;;;;;;;10.57;6.20;;;;;;;1.17;100.00;101021.84;4991505;28;20547;-79
2021/04/20 04:52:40;;;;;;;12.53;6.17;;;;;;;1.20;100.00;101017.59;5012556;28;20048;-80
2021/04/20 04:55:08;;;;;;;11.97;6.47;;;;;;;1.19;100.00;101021.06;4974328;28;20128;-82
2021/04/20 04:57:35;;;;;;;10.83;6.40;;;;;;;1.15;100.00;101020.94;4997832;28;20068;-82
2021/04/20 05:00:07;;;;;;;12.40;6.67;;;;;;;1.18;100.00;101018.38;4982408;28;20037;-81
2021/04/20 05:02:34;;;;;;;13.47;6.40;;;;;;;1.15;100.00;101019.19;4980793;28;20045;-80
2021/04/20 05:05:06;;;;;;;12.27;6.57;;;;;;;1.20;100.00;101016.72;4980450;28;20045;-79
2021/04/20 05:07:33;;;;;;;11.87;6.20;;;;;;;1.21;100.00;101021.97;4988558;28;20096;-80
2021/04/20 05:10:10;;;;;;;11.03;6.87;;;;;;;1.32;100.00;101027.41;4983400;28;20526;-81
2021/04/20 05:12:37;;;;;;;13.00;7.77;;;;;;;1.41;100.00;101027.59;5009087;28;20045;-81
2021/04/20 05:15:09;;;;;;;15.37;7.43;;;;;;;1.48;100.00;101026.03;4980378;28;20038;-80
2021/04/20 05:17:37;;;;;;;11.37;7.30;;;;;;;1.45;100.00;101026.84;5001123;28;20041;-83
2021/04/20 05:20:04;;;;;;;12.23;7.00;;;;;;;1.51;100.00;101026.97;5006132;28;20041;-82
2021/04/20 05:22:31;;;;;;;9.00;5.80;;;;;;;1.43;100.00;101025.94;4978410;28;20042;-81
2021/04/20 05:24:58;;;;;;;10.60;6.20;;;;;;;1.59;100.00;101028.00;5011107;28;20045;-81
2021/04/20 05:27:24;;;;;;;10.33;5.93;;;;;;;1.59;100.00;101024.53;4998605;28;20119;-80
2021/04/20 05:29:50;;;;;;;13.43;6.53;;;;;;;1.71;100.00;101023.94;5013775;28;20522;-80
2021/04/20 05:32:16;;;;;;;11.70;6.63;;;;;;;1.75;100.00;101020.53;5004308;28;20029;-82
2021/04/20 05:34:42;;;;;;;11.67;6.30;;;;;;;1.96;100.00;101026.19;5007910;28;20053;-81
2021/04/20 05:37:09;;;;;;;10.33;5.50;;;;;;;1.98;100.00;101025.38;4991307;28;20048;-81
2021/04/20 05:39:35;;;;;;;13.27;6.87;;;;;;;2.01;100.00;101016.72;5015197;28;20108;-78
2021/04/20 05:42:01;;;;;;;10.27;5.60;;;;;;;2.14;100.00;101026.56;4998137;28;20052;-78
2021/04/20 05:44:31;;;;;;;9.00;5.90;;;;;;;2.20;100.00;101018.84;5010201;28;20048;-80
2021/04/20 05:46:58;;;;;;;11.53;6.20;;;;;;;2.18;100.00;101015.31;4998450;28;20046;-81
2021/04/20 05:49:24;;;;;;;12.90;6.43;;;;;;;2.17;100.00;101021.38;5016882;28;20059;-82
2021/04/20 05:51:50;;;;;;;9.90;5.50;;;;;;;2.33;100.00;101017.34;5013808;28;20041;-81
2021/04/20 05:54:16;;;;;;;9.90;6.10;;;;;;;2.30;100.00;101017.31;5009619;28;20041;-80
2021/04/20 05:56:43;;;;;;;11.70;6.57;;;;;;;2.31;100.00;101021.66;5009739;28;20038;-81
2021/04/20 05:59:09;;;;;;;12.40;7.30;;;;;;;2.35;100.00;101020.84;4997480;28;20033;-81
2021/04/20 06:01:43;;;;;;;12.20;7.07;;;;;;;2.35;100.00;101025.19;5017252;28;20037;-81
2021/04/20 06:04:11;;;;;;;13.80;6.77;;;;;;;2.54;100.00;101022.09;4988094;28;20049;-80
2021/04/20 06:06:40;;;;;;;9.93;7.20;;;;;;;2.60;100.00;101010.88;4995912;28;20104;-81
2021/04/20 06:09:08;;;;;;;14.37;7.10;;;;;;;2.83;100.00;101017.34;4998790;28;20044;-81
2021/04/20 06:11:35;;;;;;;13.93;7.47;;;;;;;3.06;100.00;101020.34;4980619;28;20457;-81
2021/04/20 06:14:01;;;;;;;12.13;7.23;;;;;;;3.31;100.00;101013.78;5007133;28;20095;-81
2021/04/20 06:16:28;;;;;;;15.80;7.93;;;;;;;3.41;100.00;101025.22;5001668;28;20053;-80
2021/04/20 06:18:55;;;;;;;16.00;7.80;;;;;;;3.51;100.00;101021.88;5009923;28;20073;-81
2021/04/20 06:21:23;;;;;;;12.70;7.90;;;;;;;3.65;100.00;101025.56;4998661;28;20046;-81
2021/04/20 06:23:50;;;;;;;16.77;8.40;;;;;;;4.01;100.00;101025.16;4984771;28;20048;-81
2021/04/20 06:26:17;;;;;;;12.47;7.10;;;;;;;5.12;100.00;101021.88;4976705;28;20430;-81
2021/04/20 06:28:44;;;;;;;15.10;7.33;;;;;;;6.74;93.16;101015.63;4981218;28;20482;-80
2021/04/20 06:31:14;;;;;;;9.93;5.40;;;;;;;7.98;86.84;101018.88;4993179;28;20091;-82
2021/04/20 06:33:41;;;;;;;15.00;5.97;;;;;;;9.22;76.22;101015.47;4980512;28;20046;-81
2021/04/20 06:36:08;;;;;;;11.52;6.00;;;;;;;9.41;75.91;101006.47;4983121;28;20082;-81
2021/04/20 06:38:37;;;;;;;13.05;5.75;;;;;;;10.24;70.94;101014.34;4999696;28;20049;-81
2021/04/20 06:41:07;;;;;;;11.85;6.50;;;;;;;9.95;69.18;101012.03;4992391;28;20053;-82
2021/04/20 06:43:58;;;;;;;11.85;5.28;;;;;;;9.90;71.42;101010.34;4989704;28;20371;-81
2021/04/20 06:46:38;;;;;;;11.30;5.28;;;;;;;9.85;71.94;101010.41;4997434;28;20041;-81
2021/04/20 06:49:11;;;;;;;11.68;6.60;;;;;;;9.62;73.37;101010.66;4997411;28;20588;-79
2021/04/20 06:51:42;;;;;;;10.82;5.50;;;;;;;10.00;71.99;101014.63;4991003;28;20733;-81
2021/04/20 06:54:27;;;;;;;6.95;5.60;;;;;;;10.14;70.83;101013.56;4996750;28;20536;-79
2021/04/20 06:57:03;;;;;;;8.05;5.47;;;;;;;10.20;70.96;101015.25;4999342;28;20045;-81
2021/04/20 07:00:07;;;;;;;11.35;5.43;;;;;;;10.54;71.40;101010.41;4995307;28;20038;-81
2021/04/20 07:02:56;;;;;;;9.65;5.30;;;;;;;10.87;69.94;101018.72;5030480;28;20338;-81
2021/04/20 07:05:42;;;;;;;13.82;5.85;;;;;;;10.69;71.33;101011.94;4965225;28;20462;-81
2021/04/20 07:08:20;;;;;;;11.18;5.32;;;;;;;10.82;69.62;101015.25;4980647;28;20057;-81
2021/04/20 07:10:47;;;;;;;8.98;5.20;;;;;;;10.90;68.61;101014.25;4997284;28;20088;-81
2021/04/20 07:13:17;;;;;;;9.65;4.85;;;;;;;10.98;70.43;101015.00;4996434;28;20049;-81
2021/04/20 07:15:56;;;;;;;8.20;5.07;;;;;;;10.34;66.38;101015.06;4977256;28;20396;-82
2021/04/20 07:18:32;;;;;;;14.25;5.28;;;;;;;10.48;65.47;101006.97;4994549;28;20073;-82
2021/04/20 07:21:20;;;;;;;11.43;5.32;;;;;;;10.68;67.53;101008.44;4989715;28;20038;-83
2021/04/20 07:23:55;;;;;;;8.70;5.05;;;;;;;11.03;66.10;101012.28;4994559;28;20042;-81
2021/04/20 07:26:34;;;;;;;7.80;4.50;;;;;;;10.67;65.75;101009.31;4971958;28;20053;-84
2021/04/20 07:29:04;;;;;;;6.45;4.68;;;;;;;10.96;67.55;101000.06;4995588;28;20038;-81
2021/04/20 07:31:36;;;;;;;10.98;4.38;;;;;;;11.03;65.94;100998.19;5010711;28;20456;-81
2021/04/20 07:34:23;;;;;;;13.02;5.50;;;;;;;10.82;66.69;101000.28;4995618;28;20045;-83
2021/04/20 07:37:04;;;;;;;13.50;6.10;;;;;;;10.87;64.39;101008.13;4990008;28;20092;-82
2021/04/20 07:39:39;;;;;;;9.13;5.72;;;;;;;11.23;66.31;100998.69;5019292;28;20060;-81
2021/04/20 07:42:14;;;;;;;12.02;5.53;;;;;;;11.43;65.03;100998.31;5017724;28;20041;-81
2021/04/20 07:44:55;;;;;;;9.10;5.13;;;;;;;11.36;64.24;100996.72;5001234;28;20041;-82
2021/04/20 07:47:23;;;;;;;9.07;4.82;;;;;;;11.34;64.12;100991.44;5039119;28;20045;-82
2021/04/20 07:50:03;;;;;;;7.47;4.38;;;;;;;11.68;64.60;100983.72;5014957;28;20105;-82
2021/04/20 07:52:34;;;;;;;12.35;4.15;;;;;;;11.83;62.51;100982.59;5001628;28;20045;-81
2021/04/20 07:55:16;;;;;;;8.20;4.47;;;;;;;11.83;61.39;100979.94;5010364;28;20052;-81
2021/04/20 07:57:52;;;;;;;8.30;4.63;;;;;;;11.78;59.12;100977.38;5015450;28;20053;-81
2021/04/20 08:00:25;;;;;;;8.32;3.90;;;;;;;11.96;61.00;100983.22;5021919;28;20092;-82
2021/04/20 08:02:54;;;;;;;6.50;4.85;;;;;;;11.82;58.07;100967.63;5003544;28;20054;-82
2021/04/20 08:05:29;;;;;;;10.55;5.53;;;;;;;11.62;58.99;100978.56;4989372;28;20048;-81
2021/04/20 08:08:12;;;;;;;8.15;4.70;;;;;;;11.99;60.42;100975.19;5007106;28;20044;-81
2021/04/20 08:10:44;;;;;;;8.10;4.35;;;;;;;12.16;60.29;100981.00;5018267;28;20045;-81
2021/04/20 08:13:24;;;;;;;11.95;4.50;;;;;;;12.02;59.27;100977.78;4991118;28;20045;-82
2021/04/20 08:15:52;;;;;;;6.70;3.50;;;;;;;12.31;58.09;100972.72;5018714;28;20068;-81
2021/04/20 08:18:23;;;;;;;8.05;4.35;;;;;;;12.48;58.11;100974.13;4987435;28;20067;-81
2021/04/20 08:20:51;;;;;;;6.93;3.90;;;;;;;12.53;57.74;100970.47;5015970;28;20043;-81
2021/04/20 08:23:18;;;;;;;8.23;5.07;;;;;;;12.31;58.21;100975.38;5008853;28;20049;-81
2021/04/20 08:25:51;;;;;;;8.15;4.10;;;;;;;12.10;54.52;100970.53;5010863;28;20037;-82
2021/04/20 08:28:29;;;;;;;4.77;3.63;;;;;;;12.39;54.49;100968.13;4979455;28;548508;-81
2021/04/20 08:31:13;;;;;;;7.72;4.07;;;;;;;12.59;58.49;100961.47;4991470;28;20076;-81
2021/04/20 08:33:43;;;;;;;8.15;4.07;;;;;;;12.60;53.58;100956.13;4990665;28;20046;-80
2021/04/20 08:36:32;;;;;;;5.03;3.35;;;;;;;12.53;53.19;100962.50;5016203;28;20049;-81
2021/04/20 08:39:41;;;;;;;6.00;3.15;;;;;;;12.69;53.75;100963.00;4995646;28;20061;-81
2021/04/20 08:42:14;;;;;;;6.10;3.60;;;;;;;12.51;51.98;100958.13;4977127;28;20788;-81
2021/04/20 08:44:51;;;;;;;7.60;3.80;;;;;;;12.77;50.76;100962.81;4980903;28;20049;-81
2021/04/20 08:47:42;;;;;;;4.95;3.00;;;;;;;12.89;48.19;100960.72;4999980;28;20041;-82
2021/04/20 08:50:13;;;;;;;4.68;3.50;;;;;;;13.32;49.11;100948.16;5005593;28;20049;-81
2021/04/20 08:53:16;;;;;;;7.53;3.45;;;;;;;13.22;47.40;100947.53;4998465;28;20076;-80
2021/04/20 08:55:52;;;;;;;5.75;3.13;;;;;;;13.65;47.31;100941.03;4978064;28;20549;-81
2021/04/20 08:58:56;;;;;;;7.25;3.58;;;;;;;13.94;47.77;100938.38;5004096;28;20049;-81
2021/04/20 09:01:35;;;;;;;4.45;2.97;;;;;;;14.09;43.40;100940.59;5037089;28;20041;-81
2021/04/20 09:04:31;;;;;;;8.20;3.53;;;;;;;14.24;43.49;100933.94;5002487;28;20045;-81
2021/04/20 09:07:03;;;;;;;4.90;3.10;;;;;;;14.29;43.26;100942.66;5015894;28;20051;-81
2021/04/20 09:09:31;;;;;;;8.40;3.33;;;;;;;14.49;41.53;100931.41;4985438;28;20044;-81
2021/04/20 09:12:05;;;;;;;7.20;2.80;;;;;;;14.49;42.73;100934.06;4982981;28;20046;-81
2021/04/20 09:14:35;;;;;;;6.50;2.80;;;;;;;14.86;42.96;100931.06;4997153;28;20608;-81
2021/04/20 09:17:07;;;;;;;4.68;2.63;;;;;;;15.30;42.86;100941.97;5015999;28;20045;-81
2021/04/20 09:19:56;;;;;;;8.63;2.95;;;;;;;15.36;39.63;100940.88;5003253;28;20033;-82
2021/04/20 09:22:56;;;;;;;4.18;2.75;;;;;;;14.96;39.77;100931.59;5002932;28;20092;-81
2021/04/20 09:25:36;;;;;;;5.32;3.03;;;;;;;15.14;39.52;100932.78;5023205;28;20054;-80
2021/04/20 09:28:09;;;;;;;6.22;2.47;;;;;;;15.08;39.03;100935.66;5001751;28;20068;-81
2021/04/20 09:30:39;;;;;;;4.57;2.47;;;;;;;14.88;38.69;100931.00;5012191;28;20041;-81
2021/04/20 09:33:14;;;;;;;6.10;2.80;;;;;;;14.81;37.38;100934.81;5007215;28;20044;-81
2021/04/20 09:35:41;;;;;;;5.43;3.28;;;;;;;15.34;38.49;100937.41;5001286;28;20042;-81
2021/04/20 09:38:10;;;;;;;5.38;2.70;;;;;;;15.25;38.12;100929.75;4996465;28;20049;-81
2021/04/20 09:40:37;;;;;;;3.72;2.70;;;;;;;15.62;40.56;100921.31;5022842;28;20045;-81
2021/04/20 09:43:16;;;;;;;4.97;3.00;;;;;;;15.88;38.31;100929.19;5004993;28;20509;-81
2021/04/20 09:45:49;;;;;;;5.68;2.50;;;;;;;16.02;38.45;100926.88;5002464;28;20049;-81
2021/04/20 09:48:31;;;;;;;3.92;2.88;;;;;;;16.03;34.41;100922.41;5006076;28;20622;-82
2021/04/20 09:51:13;;;;;;;4.10;2.45;;;;;;;16.17;34.29;100925.41;5004601;28;20080;-81
2021/04/20 09:53:58;;;;;;;3.67;2.42;;;;;;;16.18;35.33;100921.81;5027862;28;20075;-81
2021/04/20 09:56:44;;;;;;;6.25;2.80;;;;;;;16.07;33.47;100913.38;5012732;28;20037;-81
2021/04/20 09:59:45;;;;;;;4.72;2.70;;;;;;;16.30;34.39;100915.09;4990830;28;20107;-81
2021/04/20 10:02:43;;;;;;;4.40;2.72;;;;;;;16.22;28.47;100917.22;5004929;28;20685;-81
2021/04/20 10:05:13;;;;;;;5.85;2.97;;;;;;;16.70;30.70;100922.41;5004184;28;20045;-81
2021/04/20 10:08:04;;;;;;;4.40;2.72;;;;;;;16.56;32.58;100912.28;4996797;28;20042;-81
2021/04/20 10:10:50;;;;;;;4.45;2.40;;;;;;;17.00;32.14;100908.69;5026733;28;20046;-81
2021/04/20 10:13:22;;;;;;;6.35;2.50;;;;;;;16.85;31.08;100911.09;4985686;28;20517;-81
2021/04/20 10:16:02;;;;;;;4.00;2.50;;;;;;;17.26;32.58;100911.09;4997546;28;20053;-81
2021/04/20 10:18:47;;;;;;;4.63;2.65;;;;;;;17.26;33.54;100915.56;4989168;28;20136;-82
2021/04/20 10:21:28;;;;;;;5.32;2.92;;;;;;;17.10;29.68;100905.56;5029952;28;20041;-82
2021/04/20 10:24:16;;;;;;;5.25;2.90;;;;;;;17.49;31.77;100907.41;4993529;28;20053;-81
2021/04/20 10:26:56;;;;;;;4.13;2.55;;;;;;;17.77;31.65;100899.03;5022175;28;20054;-81
2021/04/20 10:29:35;;;;;;;5.50;2.80;;;;;;;17.31;30.18;100906.41;5002539;28;20050;-81
2021/04/20 10:32:17;;;;;;;7.50;3.85;;;;;;;17.09;32.54;100895.81;4996692;28;20528;-81
2021/04/20 10:34:49;;;;;;;5.97;3.08;;;;;;;17.07;30.12;100899.50;5001525;28;20133;-80
2021/04/20 10:37:37;;;;;;;4.40;2.50;;;;;;;17.59;32.78;100903.38;4994502;28;20079;-82
2021/04/20 10:40:14;;;;;;;3.95;2.95;;;;;;;17.62;32.17;100895.22;5004711;28;20110;-81
2021/04/20 10:42:46;;;;;;;5.82;3.15;;;;;;;17.74;30.96;100883.16;5014085;28;20045;-81
2021/04/20 10:45:13;;;;;;;5.00;3.17;;;;;;;17.88;31.80;100894.03;5010739;28;20049;-80
2021/04/20 10:47:40;;;;;;;3.45;2.25;;;;;;;17.77;29.79;100891.00;5011143;28;20037;-81
2021/04/20 10:50:08;;;;;;;6.03;2.95;;;;;;;18.11;32.44;100886.75;4985215;28;20056;-82
2021/04/20 10:52:35;;;;;;;3.10;2.40;;;;;;;18.45;33.11;100883.28;5002819;28;20053;-82
2021/04/20 10:55:09;;;;;;;5.43;2.78;;;;;;;18.56;29.63;100888.94;5003796;28;20065;-83
2021/04/20 10:57:39;;;;;;;6.18;2.83;;;;;;;18.37;31.68;100883.66;5016134;28;20041;-81
2021/04/20 11:00:06;;;;;;;3.17;2.40;;;;;;;18.46;29.97;100883.19;4987373;28;20037;-82
2021/04/20 11:02:43;;;;;;;3.53;2.67;;;;;;;18.55;27.60;100868.50;4980953;28;20080;-81
2021/04/20 11:05:10;;;;;;;4.55;2.47;;;;;;;18.62;29.48;100874.41;4995392;28;20056;-80
2021/04/20 11:07:43;;;;;;;5.28;3.20;;;;;;;17.79;26.42;100870.41;4990803;28;20414;-80
2021/04/20 11:10:12;;;;;;;5.00;2.65;;;;;;;17.99;26.95;100865.00;5000459;28;20044;-84
2021/04/20 11:12:49;;;;;;;7.40;3.50;;;;;;;17.71;28.26;100868.09;4986845;28;20093;-81
2021/04/20 11:15:22;;;;;;;5.25;2.70;;;;;;;17.76;30.85;100864.34;5014772;28;20049;-81
2021/04/20 11:18:00;;;;;;;5.03;2.80;;;;;;;17.84;28.20;100865.72;4999455;28;20115;-80
2021/04/20 11:20:42;;;;;;;3.95;3.20;;;;;;;18.38;30.74;100858.63;4980225;28;20057;-81
2021/04/20 11:23:08;;;;;;;7.28;3.33;;;;;;;18.72;30.83;100852.47;5030530;28;20107;-81
2021/04/20 11:25:46;;;;;;;4.55;2.65;;;;;;;18.73;29.92;100850.66;5000351;28;20049;-82
2021/04/20 11:28:21;;;;;;;5.05;2.72;;;;;;;18.66;29.15;100851.94;5012221;28;20049;-82
2021/04/20 11:30:56;;;;;;;6.93;3.47;;;;;;;18.55;30.83;100849.75;4978126;28;20030;-83
2021/04/20 11:33:27;;;;;;;4.65;3.03;;;;;;;18.56;30.87;100852.34;5014236;28;20057;-80
2021/04/20 11:35:58;;;;;;;5.05;3.08;;;;;;;18.46;31.01;100844.88;4983662;28;20140;-80
2021/04/20 11:38:24;;;;;;;5.80;3.42;;;;;;;18.17;29.77;100843.66;5013393;28;20050;-80
2021/04/20 11:41:03;;;;;;;5.32;2.90;;;;;;;18.41;31.36;100839.75;4986642;28;20088;-80
2021/04/20 11:43:31;;;;;;;5.28;3.67;;;;;;;18.35;31.61;100841.88;5006020;28;20046;-81
2021/04/20 11:46:01;;;;;;;5.45;3.28;;;;;;;18.34;34.72;100837.47;4991924;28;20045;-82